Saugus, MA

9:04 AM EDT on October 24, 2014 (GMT -0400)
East Milton | Change Station
CLOSE
Current Station
Airport
Location: East Milton,
Elevation: 630 ft
Nearby Weather Stations

Elev 630 ft 42.21 °N, 71.11 °W | Updated 10 minutes ago

Overcast
Overcast
47 °F
Feels Like 47 °F
N
14
Wind Variable Wind from NW
Gusts 21 mph

Today
High -- | Low -- °F
--% Chance of Precip.
Yesterday
High -- | Low -- °F
Precip. -- in
7:07 AM 5:48 PM
New Moon, 0% visible
Pressure 29.72 in
Visibility -9999.0 miles
Clouds
Dew Point 47 °F
Humidity 100%
Rainfall 0.23 in
Snow Depth Not available.
UV Not available.
Pollen .30 out of 12
Ozone Good
Flu Activity No Activity
METAR KMQE 241254Z AUTO 32012G18KT 08/08 A2968 RMK AO1 SLP063 T00830083

More Conditions Fewer Conditions

Pressure 29.72 in
Visibility -9999.0 miles
Clouds
Dew Point 47 °F
Humidity 100%
Rainfall 0.23 in
Snow Depth Not available.
UV Not available.
Pollen .30 out of 12
Ozone Good
Flu Activity No Activity
METAR KMQE 241254Z AUTO 32012G18KT 08/08 A2968 RMK AO1 SLP063 T00830083

More Conditions Fewer Conditions

10-Day Weather Forecast

Almanac

Astronomy

Oct. 24, 2014 Rise Set
Actual Time 7:07 AM EDT 5:48 PM EDT
Civil Twilight 6:38 AM EDT 6:16 PM EDT
Nautical Twilight 6:05 AM EDT 6:49 PM EDT
Astronomical Twilight 5:33 AM EDT 7:22 PM EDT
Moon 7:44 AM EDT 6:25 PM EDT
Length of Visible Light 11h 38m
Length of Day
10h 40m
Tomorrow will be 2m 40s shorter.
New Moon, 0% of the Moon is Illuminated
Today
New Moon
Oct 30
First Quarter
Nov 6
Full
Nov 14
Last Quarter
Nov 22
New

Today's Extremes

State Highs State Lows

Community

WunderPhotos

Upload Photos

1,764,543 photos uploaded!

Nearby

Air Quality

  Air Quality AQ Index Pollutant
Yesterday Good
OZONE
Yesterday Good
PM2.5
Current Good
OZONE
Friday Good
PM2.5
Friday Good
OZONE

Snow Depth

Station Depth Elevation
No new snow has been reported.

Earthquake Activity

City Distance Mag. Time & Date
No recent earthquake activity has been reported nearby.
Minimum magnitude displayed is 2.5.

Coastal Water Temperatures

Place Temperature
Boston, MA 55.0 °F
Providence, RI 61.0 °F
Fall River, MA 61.0 °F
Conimicut Light, RI 60.1 °F

Nearby Weather Stations